sensor_id;sensor_type;location;lat;lon;timestamp;P1;durP1;ratioP1;P2;durP2;ratioP2
1366;SDS011;16877;48.810;9.282;2024-03-07T00:01:09;19.20;;;17.23;;
1366;SDS011;16877;48.810;9.282;2024-03-07T00:03:36;19.20;;;17.17;;
1366;SDS011;16877;48.810;9.282;2024-03-07T00:06:05;20.33;;;18.33;;
1366;SDS011;16877;48.810;9.282;2024-03-07T00:08:33;20.50;;;18.30;;
1366;SDS011;16877;48.810;9.282;2024-03-07T00:11:01;20.90;;;17.97;;
1366;SDS011;16877;48.810;9.282;2024-03-07T00:13:28;21.53;;;17.63;;
1366;SDS011;16877;48.810;9.282;2024-03-07T00:15:55;20.10;;;18.03;;
1366;SDS011;16877;48.810;9.282;2024-03-07T00:18:22;19.77;;;17.50;;
1366;SDS011;16877;48.810;9.282;2024-03-07T00:20:49;19.53;;;17.47;;
1366;SDS011;16877;48.810;9.282;2024-03-07T00:23:17;19.90;;;17.53;;
1366;SDS011;16877;48.810;9.282;2024-03-07T00:25:43;17.03;;;15.23;;
1366;SDS011;16877;48.810;9.282;2024-03-07T00:28:10;18.93;;;17.03;;
1366;SDS011;16877;48.810;9.282;2024-03-07T00:30:37;21.33;;;19.00;;
1366;SDS011;16877;48.810;9.282;2024-03-07T00:33:03;19.57;;;17.60;;
1366;SDS011;16877;48.810;9.282;2024-03-07T00:35:30;20.23;;;18.13;;
1366;SDS011;16877;48.810;9.282;2024-03-07T00:37:57;19.27;;;17.37;;
1366;SDS011;16877;48.810;9.282;2024-03-07T00:40:25;19.90;;;18.07;;
1366;SDS011;16877;48.810;9.282;2024-03-07T00:42:51;21.60;;;19.40;;
1366;SDS011;16877;48.810;9.282;2024-03-07T00:45:18;21.87;;;19.67;;
1366;SDS011;16877;48.810;9.282;2024-03-07T00:47:45;23.33;;;20.90;;
1366;SDS011;16877;48.810;9.282;2024-03-07T00:50:12;19.50;;;17.43;;
1366;SDS011;16877;48.810;9.282;2024-03-07T00:52:39;21.20;;;18.47;;
1366;SDS011;16877;48.810;9.282;2024-03-07T00:55:06;19.37;;;17.40;;
1366;SDS011;16877;48.810;9.282;2024-03-07T00:57:35;20.73;;;18.50;;
1366;SDS011;16877;48.810;9.282;2024-03-07T01:00:02;19.80;;;17.90;;
1366;SDS011;16877;48.810;9.282;2024-03-07T01:02:30;19.60;;;17.60;;
1366;SDS011;16877;48.810;9.282;2024-03-07T01:04:57;20.43;;;18.43;;
1366;SDS011;16877;48.810;9.282;2024-03-07T01:07:24;20.90;;;18.80;;
1366;SDS011;16877;48.810;9.282;2024-03-07T01:09:53;20.50;;;18.30;;
1366;SDS011;16877;48.810;9.282;2024-03-07T01:12:19;20.03;;;18.13;;
1366;SDS011;16877;48.810;9.282;2024-03-07T01:14:50;19.40;;;17.50;;
1366;SDS011;16877;48.810;9.282;2024-03-07T01:17:17;20.37;;;18.37;;
1366;SDS011;16877;48.810;9.282;2024-03-07T01:19:43;21.63;;;19.27;;
1366;SDS011;16877;48.810;9.282;2024-03-07T01:22:10;21.90;;;19.53;;
1366;SDS011;16877;48.810;9.282;2024-03-07T01:24:37;17.93;;;16.13;;
1366;SDS011;16877;48.810;9.282;2024-03-07T01:27:04;21.20;;;19.10;;
1366;SDS011;16877;48.810;9.282;2024-03-07T01:29:31;20.87;;;18.77;;
1366;SDS011;16877;48.810;9.282;2024-03-07T01:31:59;21.40;;;19.30;;
1366;SDS011;16877;48.810;9.282;2024-03-07T01:34:25;21.70;;;19.50;;
1366;SDS011;16877;48.810;9.282;2024-03-07T01:36:53;20.63;;;18.60;;
1366;SDS011;16877;48.810;9.282;2024-03-07T01:39:19;20.90;;;18.90;;
1366;SDS011;16877;48.810;9.282;2024-03-07T01:41:46;21.03;;;19.03;;
1366;SDS011;16877;48.810;9.282;2024-03-07T01:44:13;19.67;;;17.80;;
1366;SDS011;16877;48.810;9.282;2024-03-07T01:46:41;22.63;;;20.33;;
1366;SDS011;16877;48.810;9.282;2024-03-07T01:49:09;22.17;;;19.97;;
1366;SDS011;16877;48.810;9.282;2024-03-07T01:51:36;21.70;;;19.53;;
1366;SDS011;16877;48.810;9.282;2024-03-07T01:54:05;23.70;;;21.20;;
1366;SDS011;16877;48.810;9.282;2024-03-07T01:56:34;20.17;;;18.13;;
1366;SDS011;16877;48.810;9.282;2024-03-07T01:59:03;23.30;;;21.07;;
1366;SDS011;16877;48.810;9.282;2024-03-07T02:01:32;21.37;;;19.27;;
1366;SDS011;16877;48.810;9.282;2024-03-07T02:04:01;21.83;;;19.70;;
1366;SDS011;16877;48.810;9.282;2024-03-07T02:06:29;23.50;;;20.50;;
1366;SDS011;16877;48.810;9.282;2024-03-07T02:08:55;21.97;;;19.77;;
1366;SDS011;16877;48.810;9.282;2024-03-07T02:11:22;23.57;;;21.07;;
1366;SDS011;16877;48.810;9.282;2024-03-07T02:13:49;25.17;;;22.67;;
1366;SDS011;16877;48.810;9.282;2024-03-07T02:16:16;23.33;;;21.03;;
1366;SDS011;16877;48.810;9.282;2024-03-07T02:18:43;25.10;;;22.60;;
1366;SDS011;16877;48.810;9.282;2024-03-07T02:21:12;23.70;;;21.30;;
1366;SDS011;16877;48.810;9.282;2024-03-07T02:23:38;25.80;;;23.40;;
1366;SDS011;16877;48.810;9.282;2024-03-07T02:26:06;25.73;;;23.33;;
1366;SDS011;16877;48.810;9.282;2024-03-07T02:28:33;23.97;;;21.67;;
1366;SDS011;16877;48.810;9.282;2024-03-07T02:31:00;27.07;;;24.33;;
1366;SDS011;16877;48.810;9.282;2024-03-07T02:33:27;24.40;;;22.17;;
1366;SDS011;16877;48.810;9.282;2024-03-07T02:35:57;27.70;;;25.03;;
1366;SDS011;16877;48.810;9.282;2024-03-07T02:38:25;26.27;;;23.63;;
1366;SDS011;16877;48.810;9.282;2024-03-07T02:40:52;24.53;;;22.13;;
1366;SDS011;16877;48.810;9.282;2024-03-07T02:43:18;26.47;;;23.87;;
1366;SDS011;16877;48.810;9.282;2024-03-07T02:45:46;24.63;;;22.43;;
1366;SDS011;16877;48.810;9.282;2024-03-07T02:48:14;26.67;;;24.20;;
1366;SDS011;16877;48.810;9.282;2024-03-07T02:50:43;26.80;;;24.20;;
1366;SDS011;16877;48.810;9.282;2024-03-07T02:53:10;26.63;;;24.23;;
1366;SDS011;16877;48.810;9.282;2024-03-07T02:55:38;28.30;;;25.63;;
1366;SDS011;16877;48.810;9.282;2024-03-07T02:58:06;26.97;;;24.47;;
1366;SDS011;16877;48.810;9.282;2024-03-07T03:00:33;27.73;;;25.03;;
1366;SDS011;16877;48.810;9.282;2024-03-07T03:02:59;27.50;;;25.00;;
1366;SDS011;16877;48.810;9.282;2024-03-07T03:05:26;27.20;;;24.70;;
1366;SDS011;16877;48.810;9.282;2024-03-07T03:07:53;27.33;;;24.73;;
1366;SDS011;16877;48.810;9.282;2024-03-07T03:10:20;28.10;;;25.53;;
1366;SDS011;16877;48.810;9.282;2024-03-07T03:12:51;27.60;;;24.90;;
1366;SDS011;16877;48.810;9.282;2024-03-07T03:15:18;26.70;;;24.20;;
1366;SDS011;16877;48.810;9.282;2024-03-07T03:17:46;29.20;;;26.30;;
1366;SDS011;16877;48.810;9.282;2024-03-07T03:20:13;26.60;;;24.20;;
1366;SDS011;16877;48.810;9.282;2024-03-07T03:22:49;26.63;;;24.23;;
1366;SDS011;16877;48.810;9.282;2024-03-07T03:25:16;28.47;;;25.80;;
1366;SDS011;16877;48.810;9.282;2024-03-07T03:27:43;27.63;;;24.97;;
1366;SDS011;16877;48.810;9.282;2024-03-07T03:30:12;28.00;;;25.40;;
1366;SDS011;16877;48.810;9.282;2024-03-07T03:32:39;26.13;;;23.53;;
1366;SDS011;16877;48.810;9.282;2024-03-07T03:35:06;29.00;;;26.30;;
1366;SDS011;16877;48.810;9.282;2024-03-07T03:37:38;29.43;;;26.60;;
1366;SDS011;16877;48.810;9.282;2024-03-07T03:40:05;27.03;;;24.53;;
1366;SDS011;16877;48.810;9.282;2024-03-07T03:42:34;27.73;;;25.03;;
1366;SDS011;16877;48.810;9.282;2024-03-07T03:45:01;28.03;;;25.37;;
1366;SDS011;16877;48.810;9.282;2024-03-07T03:47:32;30.00;;;26.90;;
1366;SDS011;16877;48.810;9.282;2024-03-07T03:50:00;29.00;;;26.20;;
1366;SDS011;16877;48.810;9.282;2024-03-07T03:52:28;28.20;;;25.60;;
1366;SDS011;16877;48.810;9.282;2024-03-07T03:54:55;28.53;;;25.80;;
1366;SDS011;16877;48.810;9.282;2024-03-07T03:57:22;30.00;;;27.20;;
1366;SDS011;16877;48.810;9.282;2024-03-07T03:59:49;28.30;;;25.50;;
1366;SDS011;16877;48.810;9.282;2024-03-07T04:02:15;28.20;;;25.50;;
1366;SDS011;16877;48.810;9.282;2024-03-07T04:04:44;26.90;;;24.30;;
1366;SDS011;16877;48.810;9.282;2024-03-07T04:07:11;28.40;;;25.70;;
1366;SDS011;16877;48.810;9.282;2024-03-07T04:09:38;28.40;;;25.80;;
1366;SDS011;16877;48.810;9.282;2024-03-07T04:12:05;28.27;;;25.67;;
1366;SDS011;16877;48.810;9.282;2024-03-07T04:14:35;27.77;;;25.13;;
1366;SDS011;16877;48.810;9.282;2024-03-07T04:17:02;27.30;;;24.80;;
1366;SDS011;16877;48.810;9.282;2024-03-07T04:19:31;29.60;;;26.57;;
1366;SDS011;16877;48.810;9.282;2024-03-07T04:22:00;27.87;;;25.17;;
1366;SDS011;16877;48.810;9.282;2024-03-07T04:24:28;26.70;;;24.10;;
1366;SDS011;16877;48.810;9.282;2024-03-07T04:26:55;26.97;;;24.57;;
1366;SDS011;16877;48.810;9.282;2024-03-07T04:29:21;29.70;;;26.90;;
1366;SDS011;16877;48.810;9.282;2024-03-07T04:31:48;28.03;;;25.33;;
1366;SDS011;16877;48.810;9.282;2024-03-07T04:34:15;27.67;;;24.97;;
1366;SDS011;16877;48.810;9.282;2024-03-07T04:36:42;29.53;;;26.77;;
1366;SDS011;16877;48.810;9.282;2024-03-07T04:39:10;28.33;;;25.63;;
1366;SDS011;16877;48.810;9.282;2024-03-07T04:41:47;28.80;;;26.07;;
1366;SDS011;16877;48.810;9.282;2024-03-07T04:44:14;29.50;;;26.60;;
1366;SDS011;16877;48.810;9.282;2024-03-07T04:46:41;29.07;;;26.17;;
1366;SDS011;16877;48.810;9.282;2024-03-07T04:49:09;28.97;;;26.23;;
1366;SDS011;16877;48.810;9.282;2024-03-07T04:51:36;28.90;;;26.10;;
1366;SDS011;16877;48.810;9.282;2024-03-07T04:54:02;28.43;;;25.80;;
1366;SDS011;16877;48.810;9.282;2024-03-07T04:56:30;28.83;;;26.07;;
1366;SDS011;16877;48.810;9.282;2024-03-07T04:58:57;26.63;;;24.13;;
1366;SDS011;16877;48.810;9.282;2024-03-07T05:01:24;27.13;;;24.53;;
1366;SDS011;16877;48.810;9.282;2024-03-07T05:03:51;28.20;;;25.40;;
1366;SDS011;16877;48.810;9.282;2024-03-07T05:06:18;27.20;;;24.47;;
1366;SDS011;16877;48.810;9.282;2024-03-07T05:08:46;27.20;;;24.70;;
1366;SDS011;16877;48.810;9.282;2024-03-07T05:11:12;28.10;;;25.33;;
1366;SDS011;16877;48.810;9.282;2024-03-07T05:13:40;27.53;;;24.83;;
1366;SDS011;16877;48.810;9.282;2024-03-07T05:16:07;28.83;;;26.10;;
1366;SDS011;16877;48.810;9.282;2024-03-07T05:18:34;26.03;;;23.63;;
1366;SDS011;16877;48.810;9.282;2024-03-07T05:21:00;27.47;;;24.97;;
1366;SDS011;16877;48.810;9.282;2024-03-07T05:23:47;30.23;;;27.20;;
1366;SDS011;16877;48.810;9.282;2024-03-07T05:26:14;27.87;;;25.27;;
1366;SDS011;16877;48.810;9.282;2024-03-07T05:28:42;29.23;;;26.43;;
1366;SDS011;16877;48.810;9.282;2024-03-07T05:31:09;29.63;;;26.87;;
1366;SDS011;16877;48.810;9.282;2024-03-07T05:33:37;26.60;;;24.20;;
1366;SDS011;16877;48.810;9.282;2024-03-07T05:36:05;27.57;;;25.00;;
1366;SDS011;16877;48.810;9.282;2024-03-07T05:38:39;28.27;;;25.47;;
1366;SDS011;16877;48.810;9.282;2024-03-07T05:41:08;27.50;;;24.70;;
1366;SDS011;16877;48.810;9.282;2024-03-07T05:43:35;28.13;;;25.53;;
1366;SDS011;16877;48.810;9.282;2024-03-07T05:46:03;28.77;;;26.07;;
1366;SDS011;16877;48.810;9.282;2024-03-07T05:48:31;29.33;;;26.43;;
1366;SDS011;16877;48.810;9.282;2024-03-07T05:50:57;27.80;;;25.10;;
1366;SDS011;16877;48.810;9.282;2024-03-07T05:53:25;28.30;;;25.57;;
1366;SDS011;16877;48.810;9.282;2024-03-07T05:55:52;25.70;;;23.30;;
1366;SDS011;16877;48.810;9.282;2024-03-07T05:58:19;28.70;;;25.93;;
1366;SDS011;16877;48.810;9.282;2024-03-07T06:00:46;31.27;;;28.20;;
1366;SDS011;16877;48.810;9.282;2024-03-07T06:03:16;28.90;;;26.17;;
1366;SDS011;16877;48.810;9.282;2024-03-07T06:05:44;27.47;;;24.90;;
1366;SDS011;16877;48.810;9.282;2024-03-07T06:08:13;26.40;;;23.90;;
1366;SDS011;16877;48.810;9.282;2024-03-07T06:10:41;28.00;;;25.23;;
1366;SDS011;16877;48.810;9.282;2024-03-07T06:13:08;27.37;;;24.80;;
1366;SDS011;16877;48.810;9.282;2024-03-07T06:15:36;28.73;;;25.73;;
1366;SDS011;16877;48.810;9.282;2024-03-07T06:18:03;30.03;;;27.13;;
1366;SDS011;16877;48.810;9.282;2024-03-07T06:20:32;31.83;;;28.70;;
1366;SDS011;16877;48.810;9.282;2024-03-07T06:23:00;29.10;;;26.10;;
1366;SDS011;16877;48.810;9.282;2024-03-07T06:25:29;29.27;;;26.57;;
1366;SDS011;16877;48.810;9.282;2024-03-07T06:28:02;28.27;;;25.77;;
1366;SDS011;16877;48.810;9.282;2024-03-07T06:30:35;30.00;;;27.20;;
1366;SDS011;16877;48.810;9.282;2024-03-07T06:33:02;27.97;;;25.37;;
1366;SDS011;16877;48.810;9.282;2024-03-07T06:35:29;29.70;;;26.80;;
1366;SDS011;16877;48.810;9.282;2024-03-07T06:37:57;29.47;;;26.57;;
1366;SDS011;16877;48.810;9.282;2024-03-07T06:40:24;27.87;;;25.03;;
1366;SDS011;16877;48.810;9.282;2024-03-07T06:42:50;29.23;;;26.40;;
1366;SDS011;16877;48.810;9.282;2024-03-07T06:45:17;28.30;;;25.60;;
1366;SDS011;16877;48.810;9.282;2024-03-07T06:47:44;27.80;;;25.17;;
1366;SDS011;16877;48.810;9.282;2024-03-07T06:50:12;27.53;;;24.93;;
1366;SDS011;16877;48.810;9.282;2024-03-07T06:52:44;27.70;;;25.10;;
1366;SDS011;16877;48.810;9.282;2024-03-07T06:55:13;30.37;;;27.43;;
1366;SDS011;16877;48.810;9.282;2024-03-07T06:57:41;28.90;;;26.10;;
1366;SDS011;16877;48.810;9.282;2024-03-07T07:00:09;26.77;;;24.10;;
1366;SDS011;16877;48.810;9.282;2024-03-07T07:02:37;27.40;;;24.63;;
1366;SDS011;16877;48.810;9.282;2024-03-07T07:05:04;27.57;;;24.80;;
1366;SDS011;16877;48.810;9.282;2024-03-07T07:07:36;27.07;;;24.33;;
1366;SDS011;16877;48.810;9.282;2024-03-07T07:10:03;26.30;;;23.80;;
1366;SDS011;16877;48.810;9.282;2024-03-07T07:12:34;27.07;;;24.57;;
1366;SDS011;16877;48.810;9.282;2024-03-07T07:15:00;26.30;;;23.83;;
1366;SDS011;16877;48.810;9.282;2024-03-07T07:17:28;26.27;;;23.83;;
1366;SDS011;16877;48.810;9.282;2024-03-07T07:19:55;24.53;;;22.23;;
1366;SDS011;16877;48.810;9.282;2024-03-07T07:22:23;25.10;;;22.77;;
1366;SDS011;16877;48.810;9.282;2024-03-07T07:24:50;9.30;;;8.40;;
1366;SDS011;16877;48.810;9.282;2024-03-07T07:27:16;5.77;;;5.10;;
1366;SDS011;16877;48.810;9.282;2024-03-07T07:29:45;8.50;;;7.70;;
1366;SDS011;16877;48.810;9.282;2024-03-07T07:32:11;8.60;;;7.80;;
1366;SDS011;16877;48.810;9.282;2024-03-07T07:34:38;8.10;;;7.17;;
1366;SDS011;16877;48.810;9.282;2024-03-07T07:37:07;14.17;;;12.87;;
1366;SDS011;16877;48.810;9.282;2024-03-07T07:39:35;15.67;;;14.17;;
1366;SDS011;16877;48.810;9.282;2024-03-07T07:42:01;17.30;;;15.67;;
1366;SDS011;16877;48.810;9.282;2024-03-07T07:44:29;17.80;;;16.20;;
1366;SDS011;16877;48.810;9.282;2024-03-07T07:46:57;18.50;;;16.60;;
1366;SDS011;16877;48.810;9.282;2024-03-07T07:49:24;18.53;;;16.73;;
1366;SDS011;16877;48.810;9.282;2024-03-07T07:51:50;18.47;;;16.67;;
1366;SDS011;16877;48.810;9.282;2024-03-07T07:54:18;18.90;;;17.10;;
1366;SDS011;16877;48.810;9.282;2024-03-07T07:56:46;18.33;;;16.63;;
1366;SDS011;16877;48.810;9.282;2024-03-07T07:59:13;18.90;;;17.20;;
1366;SDS011;16877;48.810;9.282;2024-03-07T08:01:40;18.83;;;17.03;;
1366;SDS011;16877;48.810;9.282;2024-03-07T08:04:08;18.63;;;16.83;;
1366;SDS011;16877;48.810;9.282;2024-03-07T08:06:36;18.10;;;16.50;;
1366;SDS011;16877;48.810;9.282;2024-03-07T08:09:03;18.30;;;16.60;;
1366;SDS011;16877;48.810;9.282;2024-03-07T08:11:34;17.80;;;16.20;;
1366;SDS011;16877;48.810;9.282;2024-03-07T08:14:01;18.33;;;15.53;;
1366;SDS011;16877;48.810;9.282;2024-03-07T08:16:28;16.57;;;15.13;;
1366;SDS011;16877;48.810;9.282;2024-03-07T08:18:55;17.87;;;16.27;;
1366;SDS011;16877;48.810;9.282;2024-03-07T08:21:23;18.50;;;16.70;;
1366;SDS011;16877;48.810;9.282;2024-03-07T08:23:50;19.53;;;17.73;;
1366;SDS011;16877;48.810;9.282;2024-03-07T08:26:16;17.93;;;16.33;;
1366;SDS011;16877;48.810;9.282;2024-03-07T08:28:43;19.80;;;17.70;;
1366;SDS011;16877;48.810;9.282;2024-03-07T08:31:10;19.93;;;18.13;;
1366;SDS011;16877;48.810;9.282;2024-03-07T08:33:37;20.00;;;18.27;;
1366;SDS011;16877;48.810;9.282;2024-03-07T08:36:04;18.73;;;17.13;;
1366;SDS011;16877;48.810;9.282;2024-03-07T08:38:36;19.90;;;18.10;;
1366;SDS011;16877;48.810;9.282;2024-03-07T08:41:03;21.67;;;19.47;;
1366;SDS011;16877;48.810;9.282;2024-03-07T08:43:30;18.93;;;17.03;;
1366;SDS011;16877;48.810;9.282;2024-03-07T08:45:57;18.93;;;17.13;;
1366;SDS011;16877;48.810;9.282;2024-03-07T08:48:23;19.67;;;17.87;;
1366;SDS011;16877;48.810;9.282;2024-03-07T08:50:50;19.43;;;17.60;;
1366;SDS011;16877;48.810;9.282;2024-03-07T08:53:17;19.20;;;17.43;;
1366;SDS011;16877;48.810;9.282;2024-03-07T08:55:46;20.23;;;18.33;;
1366;SDS011;16877;48.810;9.282;2024-03-07T08:58:12;19.70;;;17.70;;
1366;SDS011;16877;48.810;9.282;2024-03-07T09:00:39;19.37;;;17.37;;
1366;SDS011;16877;48.810;9.282;2024-03-07T09:03:06;18.20;;;16.57;;
1366;SDS011;16877;48.810;9.282;2024-03-07T09:05:34;18.77;;;17.17;;
1366;SDS011;16877;48.810;9.282;2024-03-07T09:08:01;19.77;;;17.90;;
1366;SDS011;16877;48.810;9.282;2024-03-07T09:10:28;19.00;;;17.30;;
1366;SDS011;16877;48.810;9.282;2024-03-07T09:12:57;19.27;;;17.43;;
1366;SDS011;16877;48.810;9.282;2024-03-07T09:15:24;18.20;;;16.40;;
1366;SDS011;16877;48.810;9.282;2024-03-07T09:17:50;19.53;;;17.57;;
1366;SDS011;16877;48.810;9.282;2024-03-07T09:20:17;18.03;;;16.33;;
1366;SDS011;16877;48.810;9.282;2024-03-07T09:22:45;18.73;;;16.83;;
1366;SDS011;16877;48.810;9.282;2024-03-07T09:25:13;19.87;;;17.93;;
1366;SDS011;16877;48.810;9.282;2024-03-07T09:27:43;19.70;;;17.80;;
1366;SDS011;16877;48.810;9.282;2024-03-07T09:30:12;18.63;;;16.93;;
1366;SDS011;16877;48.810;9.282;2024-03-07T09:32:42;17.70;;;16.00;;
1366;SDS011;16877;48.810;9.282;2024-03-07T09:35:09;18.77;;;17.07;;
1366;SDS011;16877;48.810;9.282;2024-03-07T09:37:39;17.90;;;16.30;;
1366;SDS011;16877;48.810;9.282;2024-03-07T09:40:07;17.87;;;16.13;;
1366;SDS011;16877;48.810;9.282;2024-03-07T09:42:36;17.87;;;16.07;;
1366;SDS011;16877;48.810;9.282;2024-03-07T09:45:08;16.57;;;14.97;;
1366;SDS011;16877;48.810;9.282;2024-03-07T09:47:40;17.10;;;15.40;;
1366;SDS011;16877;48.810;9.282;2024-03-07T09:50:08;17.50;;;15.90;;
1366;SDS011;16877;48.810;9.282;2024-03-07T09:52:35;16.50;;;14.90;;
1366;SDS011;16877;48.810;9.282;2024-03-07T09:55:03;17.10;;;15.40;;
1366;SDS011;16877;48.810;9.282;2024-03-07T09:57:31;17.00;;;15.33;;
1366;SDS011;16877;48.810;9.282;2024-03-07T10:00:00;18.67;;;16.77;;
1366;SDS011;16877;48.810;9.282;2024-03-07T10:02:29;17.43;;;15.63;;
1366;SDS011;16877;48.810;9.282;2024-03-07T10:05:00;16.30;;;14.43;;
1366;SDS011;16877;48.810;9.282;2024-03-07T10:07:27;16.03;;;14.43;;
1366;SDS011;16877;48.810;9.282;2024-03-07T10:09:54;13.87;;;12.50;;
1366;SDS011;16877;48.810;9.282;2024-03-07T10:12:24;15.70;;;14.20;;
1366;SDS011;16877;48.810;9.282;2024-03-07T10:14:54;14.10;;;12.80;;
1366;SDS011;16877;48.810;9.282;2024-03-07T10:17:23;13.93;;;12.60;;
1366;SDS011;16877;48.810;9.282;2024-03-07T10:19:53;16.10;;;14.57;;
1366;SDS011;16877;48.810;9.282;2024-03-07T10:22:21;15.03;;;13.60;;
1366;SDS011;16877;48.810;9.282;2024-03-07T10:24:51;13.30;;;12.00;;
1366;SDS011;16877;48.810;9.282;2024-03-07T10:27:19;14.33;;;13.00;;
1366;SDS011;16877;48.810;9.282;2024-03-07T10:29:46;13.63;;;12.23;;
1366;SDS011;16877;48.810;9.282;2024-03-07T10:32:18;14.93;;;13.53;;
1366;SDS011;16877;48.810;9.282;2024-03-07T10:34:45;13.60;;;12.30;;
1366;SDS011;16877;48.810;9.282;2024-03-07T10:37:14;15.53;;;14.13;;
1366;SDS011;16877;48.810;9.282;2024-03-07T10:39:43;14.23;;;12.83;;
1366;SDS011;16877;48.810;9.282;2024-03-07T10:42:13;18.40;;;15.47;;
1366;SDS011;16877;48.810;9.282;2024-03-07T10:44:42;18.07;;;16.17;;
1366;SDS011;16877;48.810;9.282;2024-03-07T10:47:11;17.13;;;15.43;;
1366;SDS011;16877;48.810;9.282;2024-03-07T10:49:45;17.33;;;15.63;;
1366;SDS011;16877;48.810;9.282;2024-03-07T10:52:34;19.60;;;17.60;;
1366;SDS011;16877;48.810;9.282;2024-03-07T10:55:08;17.87;;;16.07;;
1366;SDS011;16877;48.810;9.282;2024-03-07T10:57:45;18.60;;;16.80;;
1366;SDS011;16877;48.810;9.282;2024-03-07T11:00:18;17.70;;;15.63;;
1366;SDS011;16877;48.810;9.282;2024-03-07T11:03:00;20.70;;;18.70;;
1366;SDS011;16877;48.810;9.282;2024-03-07T11:05:32;18.10;;;16.30;;
1366;SDS011;16877;48.810;9.282;2024-03-07T11:08:01;20.73;;;18.67;;
1366;SDS011;16877;48.810;9.282;2024-03-07T11:10:33;18.60;;;16.70;;
1366;SDS011;16877;48.810;9.282;2024-03-07T11:13:01;17.23;;;15.53;;
1366;SDS011;16877;48.810;9.282;2024-03-07T11:15:29;18.67;;;16.87;;
1366;SDS011;16877;48.810;9.282;2024-03-07T11:17:56;19.07;;;17.07;;
1366;SDS011;16877;48.810;9.282;2024-03-07T11:20:24;18.73;;;16.73;;
1366;SDS011;16877;48.810;9.282;2024-03-07T11:22:52;19.40;;;17.40;;
1366;SDS011;16877;48.810;9.282;2024-03-07T11:25:21;19.10;;;17.17;;
1366;SDS011;16877;48.810;9.282;2024-03-07T11:27:51;19.83;;;17.87;;
1366;SDS011;16877;48.810;9.282;2024-03-07T11:30:20;18.87;;;16.97;;
1366;SDS011;16877;48.810;9.282;2024-03-07T11:32:48;19.73;;;17.83;;
1366;SDS011;16877;48.810;9.282;2024-03-07T11:35:18;17.90;;;16.00;;
1366;SDS011;16877;48.810;9.282;2024-03-07T11:37:50;18.40;;;16.33;;
1366;SDS011;16877;48.810;9.282;2024-03-07T11:43:16;17.63;;;15.77;;
1366;SDS011;16877;48.810;9.282;2024-03-07T11:45:43;18.77;;;16.80;;
1366;SDS011;16877;48.810;9.282;2024-03-07T11:48:17;18.80;;;16.90;;
1366;SDS011;16877;48.810;9.282;2024-03-07T11:50:45;19.57;;;17.63;;
1366;SDS011;16877;48.810;9.282;2024-03-07T11:53:12;17.63;;;15.83;;
1366;SDS011;16877;48.810;9.282;2024-03-07T11:55:39;19.50;;;16.67;;
1366;SDS011;16877;48.810;9.282;2024-03-07T11:58:11;17.70;;;15.90;;
1366;SDS011;16877;48.810;9.282;2024-03-07T12:00:41;17.80;;;16.20;;
1366;SDS011;16877;48.810;9.282;2024-03-07T12:03:10;17.90;;;16.20;;
1366;SDS011;16877;48.810;9.282;2024-03-07T12:05:38;17.90;;;16.10;;
1366;SDS011;16877;48.810;9.282;2024-03-07T12:08:06;19.30;;;17.30;;
1366;SDS011;16877;48.810;9.282;2024-03-07T12:10:34;17.53;;;15.83;;
1366;SDS011;16877;48.810;9.282;2024-03-07T12:13:04;18.10;;;16.30;;
1366;SDS011;16877;48.810;9.282;2024-03-07T12:15:33;18.20;;;16.50;;
1366;SDS011;16877;48.810;9.282;2024-03-07T12:18:01;18.10;;;16.50;;
1366;SDS011;16877;48.810;9.282;2024-03-07T12:20:29;19.10;;;17.20;;
1366;SDS011;16877;48.810;9.282;2024-03-07T12:22:58;19.17;;;17.23;;
1366;SDS011;16877;48.810;9.282;2024-03-07T12:25:27;19.53;;;17.57;;
1366;SDS011;16877;48.810;9.282;2024-03-07T12:28:04;20.50;;;18.50;;
1366;SDS011;16877;48.810;9.282;2024-03-07T12:30:46;20.83;;;18.77;;
1366;SDS011;16877;48.810;9.282;2024-03-07T12:33:16;19.90;;;17.90;;
1366;SDS011;16877;48.810;9.282;2024-03-07T12:35:44;19.40;;;17.47;;
1366;SDS011;16877;48.810;9.282;2024-03-07T12:38:13;19.13;;;17.33;;
1366;SDS011;16877;48.810;9.282;2024-03-07T12:40:41;20.20;;;18.20;;
1366;SDS011;16877;48.810;9.282;2024-03-07T12:43:14;20.13;;;18.03;;
1366;SDS011;16877;48.810;9.282;2024-03-07T12:45:44;19.00;;;17.20;;
1366;SDS011;16877;48.810;9.282;2024-03-07T12:48:13;19.70;;;17.83;;
1366;SDS011;16877;48.810;9.282;2024-03-07T12:50:41;20.30;;;18.27;;
1366;SDS011;16877;48.810;9.282;2024-03-07T12:53:11;18.10;;;16.40;;
1366;SDS011;16877;48.810;9.282;2024-03-07T12:55:38;18.53;;;16.83;;
1366;SDS011;16877;48.810;9.282;2024-03-07T12:58:07;18.93;;;17.13;;
1366;SDS011;16877;48.810;9.282;2024-03-07T13:00:36;17.57;;;15.87;;
1366;SDS011;16877;48.810;9.282;2024-03-07T13:03:05;19.40;;;17.40;;
1366;SDS011;16877;48.810;9.282;2024-03-07T13:05:31;19.13;;;17.30;;
1366;SDS011;16877;48.810;9.282;2024-03-07T13:07:58;17.90;;;16.30;;
1366;SDS011;16877;48.810;9.282;2024-03-07T13:10:25;19.50;;;17.63;;
1366;SDS011;16877;48.810;9.282;2024-03-07T13:12:52;18.37;;;16.47;;
1366;SDS011;16877;48.810;9.282;2024-03-07T13:15:18;18.03;;;16.30;;
1366;SDS011;16877;48.810;9.282;2024-03-07T13:17:47;16.80;;;15.07;;
1366;SDS011;16877;48.810;9.282;2024-03-07T13:20:19;16.73;;;15.13;;
1366;SDS011;16877;48.810;9.282;2024-03-07T13:22:51;17.17;;;15.47;;
1366;SDS011;16877;48.810;9.282;2024-03-07T13:25:19;19.03;;;17.10;;
1366;SDS011;16877;48.810;9.282;2024-03-07T13:27:55;17.33;;;15.63;;
1366;SDS011;16877;48.810;9.282;2024-03-07T13:30:24;18.20;;;16.47;;
1366;SDS011;16877;48.810;9.282;2024-03-07T13:32:53;17.73;;;16.00;;
1366;SDS011;16877;48.810;9.282;2024-03-07T13:35:22;18.60;;;15.70;;
1366;SDS011;16877;48.810;9.282;2024-03-07T13:37:50;17.97;;;16.17;;
1366;SDS011;16877;48.810;9.282;2024-03-07T13:40:19;18.90;;;17.20;;
1366;SDS011;16877;48.810;9.282;2024-03-07T13:42:48;17.80;;;16.20;;
1366;SDS011;16877;48.810;9.282;2024-03-07T13:45:17;16.90;;;15.20;;
1366;SDS011;16877;48.810;9.282;2024-03-07T13:47:45;17.90;;;16.10;;
1366;SDS011;16877;48.810;9.282;2024-03-07T13:50:13;20.83;;;18.93;;
1366;SDS011;16877;48.810;9.282;2024-03-07T13:52:41;21.30;;;19.00;;
1366;SDS011;16877;48.810;9.282;2024-03-07T13:55:31;17.00;;;15.10;;
1366;SDS011;16877;48.810;9.282;2024-03-07T13:58:02;21.80;;;16.80;;
1366;SDS011;16877;48.810;9.282;2024-03-07T14:00:39;19.90;;;17.77;;
1366;SDS011;16877;48.810;9.282;2024-03-07T14:03:22;10.70;;;7.73;;
1366;SDS011;16877;48.810;9.282;2024-03-07T14:06:11;9.17;;;8.20;;
1366;SDS011;16877;48.810;9.282;2024-03-07T14:12:03;11.93;;;10.03;;
1366;SDS011;16877;48.810;9.282;2024-03-07T14:18:18;12.43;;;10.90;;
1366;SDS011;16877;48.810;9.282;2024-03-07T14:27:26;16.43;;;14.63;;
1366;SDS011;16877;48.810;9.282;2024-03-07T14:30:00;17.87;;;15.87;;
1366;SDS011;16877;48.810;9.282;2024-03-07T14:32:53;17.67;;;15.87;;
1366;SDS011;16877;48.810;9.282;2024-03-07T14:35:23;17.87;;;16.20;;
1366;SDS011;16877;48.810;9.282;2024-03-07T14:38:02;17.00;;;15.30;;
1366;SDS011;16877;48.810;9.282;2024-03-07T14:40:33;16.17;;;14.57;;
1366;SDS011;16877;48.810;9.282;2024-03-07T14:43:01;19.10;;;17.13;;
1366;SDS011;16877;48.810;9.282;2024-03-07T14:45:34;17.73;;;15.90;;
1366;SDS011;16877;48.810;9.282;2024-03-07T14:48:06;17.17;;;15.37;;
1366;SDS011;16877;48.810;9.282;2024-03-07T14:50:35;18.63;;;16.63;;
1366;SDS011;16877;48.810;9.282;2024-03-07T14:53:03;17.20;;;15.40;;
1366;SDS011;16877;48.810;9.282;2024-03-07T14:55:31;19.33;;;17.37;;
1366;SDS011;16877;48.810;9.282;2024-03-07T14:57:59;17.43;;;15.63;;
1366;SDS011;16877;48.810;9.282;2024-03-07T15:00:26;19.03;;;17.10;;